Storm Events Database

Event Details

Event Hail
Magnitude 0.88 in.
State NEBRASKA
County/Area KEYA PAHA
WFO LBF
Report Source Public
NCDC Data Source CSV
Begin Date 2011-08-11 18:55:00.0 CST-6
Begin Location 1NW BURTON
Begin Lat/Lon 42.91/-99.61
End Date 2011-08-11 18:55:00.0 CST-6
Deaths Direct/Indirect 0/0 (fatality details below, when available...)
Injuries Direct/Indirect 0/0
Property Damage 0.00K
Crop Damage 0.00K
Episode Narrative Severe thunderstorms developed in north central Nebraska on the afternoon of August 11th in the vicinity of a warm front draped from southwest South Dakota into northeast Nebraska. The storms quickly became tornadic with six tornados occurring by the end of the evening. The largest tornado was classified as an EF3 and touched down over southeast Cherry county and traveled into Brown county before lifting. The other tornadoes produced minimal damage and were rated EF0's and EF1's. Large hail also impacted these areas, with the largest size being tennis ball size.
Event Narrative


     ‚Äč



All events for this episode:

Location County/Zone St. Date Time T.Z. Type Mag Dth Inj PrD CrD
Totals: 0 0 31.50K 0.00K
LAMAR CHASE CO. NE 08/11/2011 18:10 MST-7 Hail 1.25 in. 0 0 0.00K 0.00K
NAPER BOYD CO. NE 08/11/2011 18:28 CST-6 Thunderstorm Wind 52 kts. EG 0 0 0.00K 0.00K
LAMAR CHASE CO. NE 08/11/2011 18:40 MST-7 Hail 2.50 in. 0 0 0.00K 0.00K
WOOD LAKE CHERRY CO. NE 08/11/2011 18:49 CST-6 Tornado EF0 0 0 0.00K 0.00K
BURTON KEYA PAHA CO. NE 08/11/2011 18:55 CST-6 Hail 0.88 in. 0 0 0.00K 0.00K
(ANW)AINSWORTH MUNI BROWN CO. NE 08/11/2011 18:58 CST-6 Tornado EF0 0 0 0.00K 0.00K
BURTON KEYA PAHA CO. NE 08/11/2011 19:00 CST-6 Thunderstorm Wind 52 kts. EG 0 0 0.50K 0.00K
BURTON KEYA PAHA CO. NE 08/11/2011 19:00 CST-6 Hail 0.88 in. 0 0 0.00K 0.00K
WOOD LAKE CHERRY CO. NE 08/11/2011 19:00 CST-6 Tornado EF1 0 0 3.00K 0.00K
(ANW)AINSWORTH MUNI BROWN CO. NE 08/11/2011 19:03 CST-6 Hail 1.00 in. 0 0 0.00K 0.00K
WOOD LAKE CHERRY CO. NE 08/11/2011 19:05 CST-6 Tornado EF3 0 0 15.00K 0.00K
JOHNSTOWN BROWN CO. NE 08/11/2011 19:15 CST-6 Hail 1.75 in. 0 0 0.00K 0.00K
JOHNSTOWN BROWN CO. NE 08/11/2011 19:15 CST-6 Funnel Cloud 0 0 0.00K 0.00K
JOHNSTOWN BROWN CO. NE 08/11/2011 19:22 CST-6 Tornado EF0 0 0 0.00K 0.00K
BASSETT ROCK CO. NE 08/11/2011 19:25 CST-6 Hail 1.00 in. 0 0 0.00K 0.00K
BROWNLEE CHERRY CO. NE 08/11/2011 19:35 CST-6 Hail 2.75 in. 0 0 0.00K 0.00K
JOHNSTOWN BROWN CO. NE 08/11/2011 19:54 CST-6 Tornado EF0 0 0 2.00K 0.00K
BROWNLEE CHERRY CO. NE 08/11/2011 20:10 CST-6 Hail 1.75 in. 0 0 0.00K 0.00K
HALSEY THOMAS CO. NE 08/11/2011 20:53 CST-6 Tornado EF0 0 0 11.00K 0.00K
PURDUM BLAINE CO. NE 08/11/2011 21:02 CST-6 Hail 1.25 in. 0 0 0.00K 0.00K
PURDUM BLAINE CO. NE 08/11/2011 21:22 CST-6 Funnel Cloud 0 0 0.00K 0.00K
DUNNING BLAINE CO. NE 08/11/2011 21:40 CST-6 Hail 1.25 in. 0 0 0.00K 0.00K
BROWNLEE CHERRY CO. NE 08/11/2011 22:00 CST-6 Hail 1.00 in. 0 0 0.00K 0.00K
HALSEY THOMAS CO. NE 08/11/2011 22:30 CST-6 Hail 1.00 in. 0 0 0.00K 0.00K
BREWSTER BLAINE CO. NE 08/11/2011 23:00 CST-6 Hail 1.75 in. 0 0 0.00K 0.00K
GORDON SHERIDAN CO. NE 08/11/2011 23:27 MST-7 Hail 1.00 in. 0 0 0.00K 0.00K
BREWSTER BLAINE CO. NE 08/11/2011 23:40 CST-6 Hail 1.00 in. 0 0 0.00K 0.00K
Totals: 0 0 31.50K 0.00K